sensor_id;sensor_type;location;lat;lon;timestamp;P1;durP1;ratioP1;P2;durP2;ratioP2
35576;SDS011;21680;52.400;16.920;2023-08-12T00:00:45;12.20;;;5.10;;
35576;SDS011;21680;52.400;16.920;2023-08-12T00:03:10;11.40;;;5.60;;
35576;SDS011;21680;52.400;16.920;2023-08-12T00:05:35;16.80;;;6.10;;
35576;SDS011;21680;52.400;16.920;2023-08-12T00:08:02;14.40;;;5.90;;
35576;SDS011;21680;52.400;16.920;2023-08-12T00:10:27;12.10;;;5.60;;
35576;SDS011;21680;52.400;16.920;2023-08-12T00:12:53;11.40;;;5.60;;
35576;SDS011;21680;52.400;16.920;2023-08-12T00:15:18;12.50;;;6.50;;
35576;SDS011;21680;52.400;16.920;2023-08-12T00:17:43;17.10;;;6.00;;
35576;SDS011;21680;52.400;16.920;2023-08-12T00:20:09;20.00;;;6.60;;
35576;SDS011;21680;52.400;16.920;2023-08-12T00:22:36;19.50;;;5.90;;
35576;SDS011;21680;52.400;16.920;2023-08-12T00:25:02;14.10;;;6.70;;
35576;SDS011;21680;52.400;16.920;2023-08-12T00:27:28;21.60;;;6.60;;
35576;SDS011;21680;52.400;16.920;2023-08-12T00:29:53;16.40;;;6.30;;
35576;SDS011;21680;52.400;16.920;2023-08-12T00:32:19;16.50;;;6.80;;
35576;SDS011;21680;52.400;16.920;2023-08-12T00:34:44;13.00;;;7.00;;
35576;SDS011;21680;52.400;16.920;2023-08-12T00:37:09;19.40;;;7.30;;
35576;SDS011;21680;52.400;16.920;2023-08-12T00:39:35;14.00;;;6.40;;
35576;SDS011;21680;52.400;16.920;2023-08-12T00:42:00;15.40;;;6.60;;
35576;SDS011;21680;52.400;16.920;2023-08-12T00:44:25;16.60;;;6.50;;
35576;SDS011;21680;52.400;16.920;2023-08-12T00:46:51;14.60;;;6.80;;
35576;SDS011;21680;52.400;16.920;2023-08-12T00:49:16;11.50;;;5.90;;
35576;SDS011;21680;52.400;16.920;2023-08-12T00:51:42;17.60;;;6.40;;
35576;SDS011;21680;52.400;16.920;2023-08-12T00:54:11;13.60;;;6.30;;
35576;SDS011;21680;52.400;16.920;2023-08-12T00:56:39;13.70;;;7.20;;
35576;SDS011;21680;52.400;16.920;2023-08-12T00:59:06;10.60;;;6.30;;
35576;SDS011;21680;52.400;16.920;2023-08-12T01:01:34;16.20;;;6.50;;
35576;SDS011;21680;52.400;16.920;2023-08-12T01:04:00;12.50;;;6.00;;
35576;SDS011;21680;52.400;16.920;2023-08-12T01:06:25;12.00;;;5.80;;
35576;SDS011;21680;52.400;16.920;2023-08-12T01:08:50;11.70;;;6.20;;
35576;SDS011;21680;52.400;16.920;2023-08-12T01:11:18;15.00;;;5.80;;
35576;SDS011;21680;52.400;16.920;2023-08-12T01:13:58;12.80;;;6.30;;
35576;SDS011;21680;52.400;16.920;2023-08-12T01:16:33;13.40;;;5.80;;
35576;SDS011;21680;52.400;16.920;2023-08-12T01:19:05;19.60;;;6.30;;
35576;SDS011;21680;52.400;16.920;2023-08-12T01:21:34;13.00;;;6.70;;
35576;SDS011;21680;52.400;16.920;2023-08-12T01:24:06;10.20;;;6.00;;
35576;SDS011;21680;52.400;16.920;2023-08-12T01:26:32;13.80;;;6.70;;
35576;SDS011;21680;52.400;16.920;2023-08-12T01:28:57;16.10;;;6.20;;
35576;SDS011;21680;52.400;16.920;2023-08-12T01:34:26;16.80;;;6.70;;
35576;SDS011;21680;52.400;16.920;2023-08-12T01:37:07;16.20;;;6.80;;
35576;SDS011;21680;52.400;16.920;2023-08-12T01:39:36;16.70;;;6.90;;
35576;SDS011;21680;52.400;16.920;2023-08-12T01:42:03;19.00;;;7.40;;
35576;SDS011;21680;52.400;16.920;2023-08-12T01:44:30;16.20;;;7.90;;
35576;SDS011;21680;52.400;16.920;2023-08-12T01:46:55;11.10;;;6.00;;
35576;SDS011;21680;52.400;16.920;2023-08-12T01:49:20;15.70;;;7.20;;
35576;SDS011;21680;52.400;16.920;2023-08-12T01:51:48;13.20;;;6.40;;
35576;SDS011;21680;52.400;16.920;2023-08-12T01:54:13;15.40;;;6.90;;
35576;SDS011;21680;52.400;16.920;2023-08-12T01:56:38;13.60;;;7.30;;
35576;SDS011;21680;52.400;16.920;2023-08-12T01:59:04;16.90;;;6.70;;
35576;SDS011;21680;52.400;16.920;2023-08-12T02:01:29;12.20;;;7.00;;
35576;SDS011;21680;52.400;16.920;2023-08-12T02:03:54;14.10;;;7.40;;
35576;SDS011;21680;52.400;16.920;2023-08-12T02:06:19;13.70;;;7.20;;
35576;SDS011;21680;52.400;16.920;2023-08-12T02:08:45;13.40;;;7.70;;
35576;SDS011;21680;52.400;16.920;2023-08-12T02:11:10;12.40;;;6.20;;
35576;SDS011;21680;52.400;16.920;2023-08-12T02:13:35;11.40;;;6.60;;
35576;SDS011;21680;52.400;16.920;2023-08-12T02:16:00;13.60;;;7.20;;
35576;SDS011;21680;52.400;16.920;2023-08-12T02:18:26;15.20;;;7.20;;
35576;SDS011;21680;52.400;16.920;2023-08-12T02:20:51;13.70;;;6.50;;
35576;SDS011;21680;52.400;16.920;2023-08-12T02:23:16;12.50;;;6.60;;
35576;SDS011;21680;52.400;16.920;2023-08-12T02:25:41;13.40;;;7.40;;
35576;SDS011;21680;52.400;16.920;2023-08-12T02:28:07;16.10;;;8.10;;
35576;SDS011;21680;52.400;16.920;2023-08-12T02:30:32;16.00;;;7.40;;
35576;SDS011;21680;52.400;16.920;2023-08-12T02:32:58;14.80;;;6.90;;
35576;SDS011;21680;52.400;16.920;2023-08-12T02:35:23;12.80;;;6.90;;
35576;SDS011;21680;52.400;16.920;2023-08-12T02:37:48;14.30;;;6.70;;
35576;SDS011;21680;52.400;16.920;2023-08-12T02:40:14;17.10;;;6.80;;
35576;SDS011;21680;52.400;16.920;2023-08-12T02:42:39;15.20;;;7.10;;
35576;SDS011;21680;52.400;16.920;2023-08-12T02:45:05;16.10;;;7.50;;
35576;SDS011;21680;52.400;16.920;2023-08-12T02:47:30;12.90;;;6.90;;
35576;SDS011;21680;52.400;16.920;2023-08-12T02:49:56;15.70;;;6.60;;
35576;SDS011;21680;52.400;16.920;2023-08-12T02:52:21;12.20;;;7.40;;
35576;SDS011;21680;52.400;16.920;2023-08-12T02:54:46;13.00;;;7.70;;
35576;SDS011;21680;52.400;16.920;2023-08-12T02:57:11;14.10;;;7.60;;
35576;SDS011;21680;52.400;16.920;2023-08-12T02:59:37;15.60;;;8.50;;
35576;SDS011;21680;52.400;16.920;2023-08-12T03:02:02;17.40;;;8.00;;
35576;SDS011;21680;52.400;16.920;2023-08-12T03:04:28;16.10;;;8.10;;
35576;SDS011;21680;52.400;16.920;2023-08-12T03:06:54;15.70;;;8.70;;
35576;SDS011;21680;52.400;16.920;2023-08-12T03:09:19;16.70;;;8.40;;
35576;SDS011;21680;52.400;16.920;2023-08-12T03:11:45;20.00;;;9.00;;
35576;SDS011;21680;52.400;16.920;2023-08-12T03:14:10;11.30;;;7.30;;
35576;SDS011;21680;52.400;16.920;2023-08-12T03:16:36;17.60;;;8.30;;
35576;SDS011;21680;52.400;16.920;2023-08-12T03:19:01;14.30;;;7.80;;
35576;SDS011;21680;52.400;16.920;2023-08-12T03:21:26;12.80;;;7.60;;
35576;SDS011;21680;52.400;16.920;2023-08-12T03:23:51;18.10;;;9.10;;
35576;SDS011;21680;52.400;16.920;2023-08-12T03:26:17;12.70;;;7.80;;
35576;SDS011;21680;52.400;16.920;2023-08-12T03:28:42;15.40;;;8.40;;
35576;SDS011;21680;52.400;16.920;2023-08-12T03:31:07;19.10;;;8.90;;
35576;SDS011;21680;52.400;16.920;2023-08-12T03:33:32;17.90;;;8.10;;
35576;SDS011;21680;52.400;16.920;2023-08-12T03:35:58;17.10;;;8.20;;
35576;SDS011;21680;52.400;16.920;2023-08-12T03:38:24;15.50;;;8.50;;
35576;SDS011;21680;52.400;16.920;2023-08-12T03:40:49;18.60;;;8.00;;
35576;SDS011;21680;52.400;16.920;2023-08-12T03:43:15;15.90;;;8.40;;
35576;SDS011;21680;52.400;16.920;2023-08-12T03:45:40;14.80;;;8.10;;
35576;SDS011;21680;52.400;16.920;2023-08-12T03:48:07;18.90;;;8.40;;
35576;SDS011;21680;52.400;16.920;2023-08-12T03:50:36;15.80;;;7.50;;
35576;SDS011;21680;52.400;16.920;2023-08-12T03:53:02;16.00;;;8.10;;
35576;SDS011;21680;52.400;16.920;2023-08-12T03:55:31;16.70;;;7.60;;
35576;SDS011;21680;52.400;16.920;2023-08-12T03:57:58;15.10;;;7.80;;
35576;SDS011;21680;52.400;16.920;2023-08-12T04:00:24;19.30;;;9.00;;
35576;SDS011;21680;52.400;16.920;2023-08-12T04:02:49;16.00;;;8.70;;
35576;SDS011;21680;52.400;16.920;2023-08-12T04:05:14;15.80;;;8.00;;
35576;SDS011;21680;52.400;16.920;2023-08-12T04:07:39;13.40;;;8.10;;
35576;SDS011;21680;52.400;16.920;2023-08-12T04:10:05;14.20;;;7.50;;
35576;SDS011;21680;52.400;16.920;2023-08-12T04:12:30;18.30;;;8.40;;
35576;SDS011;21680;52.400;16.920;2023-08-12T04:14:56;16.30;;;8.40;;
35576;SDS011;21680;52.400;16.920;2023-08-12T04:17:21;15.90;;;7.70;;
35576;SDS011;21680;52.400;16.920;2023-08-12T04:19:46;17.60;;;8.00;;
35576;SDS011;21680;52.400;16.920;2023-08-12T04:22:12;17.60;;;7.70;;
35576;SDS011;21680;52.400;16.920;2023-08-12T04:24:37;13.70;;;8.00;;
35576;SDS011;21680;52.400;16.920;2023-08-12T04:27:02;14.10;;;7.90;;
35576;SDS011;21680;52.400;16.920;2023-08-12T04:29:28;21.90;;;9.40;;
35576;SDS011;21680;52.400;16.920;2023-08-12T04:31:53;16.70;;;8.80;;
35576;SDS011;21680;52.400;16.920;2023-08-12T04:34:18;14.30;;;8.10;;
35576;SDS011;21680;52.400;16.920;2023-08-12T04:36:43;15.30;;;8.50;;
35576;SDS011;21680;52.400;16.920;2023-08-12T04:39:09;15.50;;;9.10;;
35576;SDS011;21680;52.400;16.920;2023-08-12T04:41:35;14.20;;;9.30;;
35576;SDS011;21680;52.400;16.920;2023-08-12T04:44:04;19.20;;;9.60;;
35576;SDS011;21680;52.400;16.920;2023-08-12T04:46:30;19.10;;;8.80;;
35576;SDS011;21680;52.400;16.920;2023-08-12T04:48:55;21.10;;;10.20;;
35576;SDS011;21680;52.400;16.920;2023-08-12T04:51:20;17.30;;;9.30;;
35576;SDS011;21680;52.400;16.920;2023-08-12T04:53:46;17.90;;;9.50;;
35576;SDS011;21680;52.400;16.920;2023-08-12T04:56:11;13.90;;;8.90;;
35576;SDS011;21680;52.400;16.920;2023-08-12T04:58:36;14.30;;;8.80;;
35576;SDS011;21680;52.400;16.920;2023-08-12T05:01:02;13.60;;;8.70;;
35576;SDS011;21680;52.400;16.920;2023-08-12T05:03:28;18.00;;;10.30;;
35576;SDS011;21680;52.400;16.920;2023-08-12T05:05:53;16.00;;;9.80;;
35576;SDS011;21680;52.400;16.920;2023-08-12T05:08:19;18.10;;;9.00;;
35576;SDS011;21680;52.400;16.920;2023-08-12T05:10:46;17.30;;;8.90;;
35576;SDS011;21680;52.400;16.920;2023-08-12T05:13:13;13.70;;;8.30;;
35576;SDS011;21680;52.400;16.920;2023-08-12T05:15:38;16.00;;;8.70;;
35576;SDS011;21680;52.400;16.920;2023-08-12T05:18:05;14.80;;;8.30;;
35576;SDS011;21680;52.400;16.920;2023-08-12T05:20:30;16.90;;;9.40;;
35576;SDS011;21680;52.400;16.920;2023-08-12T05:22:55;17.10;;;8.90;;
35576;SDS011;21680;52.400;16.920;2023-08-12T05:25:22;15.90;;;8.10;;
35576;SDS011;21680;52.400;16.920;2023-08-12T05:27:47;14.10;;;9.10;;
35576;SDS011;21680;52.400;16.920;2023-08-12T05:30:12;15.10;;;8.50;;
35576;SDS011;21680;52.400;16.920;2023-08-12T05:32:38;23.50;;;8.40;;
35576;SDS011;21680;52.400;16.920;2023-08-12T05:35:03;20.40;;;9.40;;
35576;SDS011;21680;52.400;16.920;2023-08-12T05:37:29;12.60;;;8.00;;
35576;SDS011;21680;52.400;16.920;2023-08-12T05:39:54;14.60;;;8.20;;
35576;SDS011;21680;52.400;16.920;2023-08-12T05:42:20;18.30;;;7.70;;
35576;SDS011;21680;52.400;16.920;2023-08-12T05:44:45;17.80;;;8.80;;
35576;SDS011;21680;52.400;16.920;2023-08-12T05:47:10;16.20;;;8.30;;
35576;SDS011;21680;52.400;16.920;2023-08-12T05:49:35;13.10;;;7.50;;
35576;SDS011;21680;52.400;16.920;2023-08-12T05:52:01;10.30;;;6.90;;
35576;SDS011;21680;52.400;16.920;2023-08-12T05:54:26;14.00;;;7.90;;
35576;SDS011;21680;52.400;16.920;2023-08-12T05:56:51;15.90;;;8.00;;
35576;SDS011;21680;52.400;16.920;2023-08-12T05:59:17;12.10;;;7.00;;
35576;SDS011;21680;52.400;16.920;2023-08-12T06:01:42;21.50;;;8.10;;
35576;SDS011;21680;52.400;16.920;2023-08-12T06:04:07;10.30;;;6.90;;
35576;SDS011;21680;52.400;16.920;2023-08-12T06:06:33;16.30;;;7.40;;
35576;SDS011;21680;52.400;16.920;2023-08-12T06:08:58;15.70;;;7.30;;
35576;SDS011;21680;52.400;16.920;2023-08-12T06:11:24;19.20;;;7.30;;
35576;SDS011;21680;52.400;16.920;2023-08-12T06:13:49;12.70;;;7.80;;
35576;SDS011;21680;52.400;16.920;2023-08-12T06:16:14;9.10;;;6.60;;
35576;SDS011;21680;52.400;16.920;2023-08-12T06:18:40;14.10;;;6.50;;
35576;SDS011;21680;52.400;16.920;2023-08-12T06:21:05;12.90;;;7.50;;
35576;SDS011;21680;52.400;16.920;2023-08-12T06:23:30;12.30;;;7.30;;
35576;SDS011;21680;52.400;16.920;2023-08-12T06:25:56;14.10;;;6.70;;
35576;SDS011;21680;52.400;16.920;2023-08-12T06:28:21;14.60;;;6.40;;
35576;SDS011;21680;52.400;16.920;2023-08-12T06:30:46;13.70;;;6.60;;
35576;SDS011;21680;52.400;16.920;2023-08-12T06:33:13;9.50;;;5.60;;
35576;SDS011;21680;52.400;16.920;2023-08-12T06:35:39;11.70;;;6.00;;
35576;SDS011;21680;52.400;16.920;2023-08-12T06:38:05;8.50;;;5.60;;
35576;SDS011;21680;52.400;16.920;2023-08-12T06:40:30;9.70;;;5.20;;
35576;SDS011;21680;52.400;16.920;2023-08-12T06:42:56;14.50;;;6.60;;
35576;SDS011;21680;52.400;16.920;2023-08-12T06:45:21;12.80;;;5.40;;
35576;SDS011;21680;52.400;16.920;2023-08-12T06:47:46;13.20;;;5.40;;
35576;SDS011;21680;52.400;16.920;2023-08-12T06:50:11;12.60;;;5.50;;
35576;SDS011;21680;52.400;16.920;2023-08-12T06:52:37;11.20;;;5.00;;
35576;SDS011;21680;52.400;16.920;2023-08-12T06:55:02;11.70;;;5.50;;
35576;SDS011;21680;52.400;16.920;2023-08-12T06:57:27;11.20;;;5.10;;
35576;SDS011;21680;52.400;16.920;2023-08-12T06:59:53;9.50;;;5.00;;
35576;SDS011;21680;52.400;16.920;2023-08-12T07:02:18;10.70;;;4.60;;
35576;SDS011;21680;52.400;16.920;2023-08-12T07:04:43;9.40;;;4.50;;
35576;SDS011;21680;52.400;16.920;2023-08-12T07:07:08;8.30;;;4.50;;
35576;SDS011;21680;52.400;16.920;2023-08-12T07:09:34;8.90;;;4.60;;
35576;SDS011;21680;52.400;16.920;2023-08-12T07:11:59;10.40;;;4.60;;
35576;SDS011;21680;52.400;16.920;2023-08-12T07:14:26;7.10;;;4.00;;
35576;SDS011;21680;52.400;16.920;2023-08-12T07:16:53;5.60;;;4.00;;
35576;SDS011;21680;52.400;16.920;2023-08-12T07:19:19;7.50;;;4.60;;
35576;SDS011;21680;52.400;16.920;2023-08-12T07:21:44;7.00;;;4.20;;
35576;SDS011;21680;52.400;16.920;2023-08-12T07:24:09;7.20;;;4.30;;
35576;SDS011;21680;52.400;16.920;2023-08-12T07:26:34;6.50;;;3.90;;
35576;SDS011;21680;52.400;16.920;2023-08-12T07:29:00;6.20;;;4.20;;
35576;SDS011;21680;52.400;16.920;2023-08-12T07:31:25;9.40;;;3.90;;
35576;SDS011;21680;52.400;16.920;2023-08-12T07:33:50;6.60;;;4.20;;
35576;SDS011;21680;52.400;16.920;2023-08-12T07:36:15;7.90;;;4.20;;
35576;SDS011;21680;52.400;16.920;2023-08-12T07:38:41;9.60;;;4.60;;
35576;SDS011;21680;52.400;16.920;2023-08-12T07:41:06;12.70;;;4.30;;
35576;SDS011;21680;52.400;16.920;2023-08-12T07:43:31;9.00;;;4.00;;
35576;SDS011;21680;52.400;16.920;2023-08-12T07:45:57;4.50;;;3.80;;
35576;SDS011;21680;52.400;16.920;2023-08-12T07:48:22;8.20;;;4.10;;
35576;SDS011;21680;52.400;16.920;2023-08-12T07:50:47;9.50;;;4.60;;
35576;SDS011;21680;52.400;16.920;2023-08-12T07:53:20;13.40;;;3.60;;
35576;SDS011;21680;52.400;16.920;2023-08-12T07:55:45;6.40;;;3.60;;
35576;SDS011;21680;52.400;16.920;2023-08-12T07:58:11;5.60;;;4.00;;
35576;SDS011;21680;52.400;16.920;2023-08-12T08:00:36;9.30;;;4.00;;
35576;SDS011;21680;52.400;16.920;2023-08-12T08:03:01;10.60;;;4.20;;
35576;SDS011;21680;52.400;16.920;2023-08-12T08:05:26;8.20;;;4.00;;
35576;SDS011;21680;52.400;16.920;2023-08-12T08:07:52;8.60;;;3.70;;
35576;SDS011;21680;52.400;16.920;2023-08-12T08:10:17;10.00;;;3.30;;
35576;SDS011;21680;52.400;16.920;2023-08-12T08:12:42;7.40;;;3.40;;
35576;SDS011;21680;52.400;16.920;2023-08-12T08:15:08;4.70;;;3.10;;
35576;SDS011;21680;52.400;16.920;2023-08-12T08:17:33;4.80;;;3.40;;
35576;SDS011;21680;52.400;16.920;2023-08-12T08:19:59;8.30;;;2.90;;
35576;SDS011;21680;52.400;16.920;2023-08-12T08:22:24;7.00;;;3.60;;
35576;SDS011;21680;52.400;16.920;2023-08-12T08:24:49;6.60;;;2.80;;
35576;SDS011;21680;52.400;16.920;2023-08-12T08:27:14;7.00;;;3.00;;
35576;SDS011;21680;52.400;16.920;2023-08-12T08:29:40;4.10;;;3.40;;
35576;SDS011;21680;52.400;16.920;2023-08-12T08:32:06;8.50;;;3.10;;
35576;SDS011;21680;52.400;16.920;2023-08-12T08:34:31;10.00;;;3.80;;
35576;SDS011;21680;52.400;16.920;2023-08-12T08:36:56;11.00;;;3.70;;
35576;SDS011;21680;52.400;16.920;2023-08-12T08:39:21;5.40;;;3.50;;
35576;SDS011;21680;52.400;16.920;2023-08-12T08:41:47;8.40;;;3.20;;
35576;SDS011;21680;52.400;16.920;2023-08-12T08:44:13;9.80;;;2.60;;
35576;SDS011;21680;52.400;16.920;2023-08-12T08:46:40;6.30;;;3.20;;
35576;SDS011;21680;52.400;16.920;2023-08-12T08:49:07;6.60;;;2.80;;
35576;SDS011;21680;52.400;16.920;2023-08-12T08:51:34;7.90;;;3.20;;
35576;SDS011;21680;52.400;16.920;2023-08-12T08:54:01;6.90;;;2.90;;
35576;SDS011;21680;52.400;16.920;2023-08-12T08:56:27;7.20;;;2.90;;
35576;SDS011;21680;52.400;16.920;2023-08-12T08:58:53;3.60;;;2.30;;
35576;SDS011;21680;52.400;16.920;2023-08-12T09:01:19;5.20;;;2.20;;
35576;SDS011;21680;52.400;16.920;2023-08-12T09:03:47;9.20;;;3.00;;
35576;SDS011;21680;52.400;16.920;2023-08-12T09:06:15;4.20;;;2.40;;
35576;SDS011;21680;52.400;16.920;2023-08-12T09:08:43;5.50;;;2.40;;
35576;SDS011;21680;52.400;16.920;2023-08-12T09:11:10;5.00;;;2.40;;
35576;SDS011;21680;52.400;16.920;2023-08-12T09:13:38;4.00;;;2.50;;
35576;SDS011;21680;52.400;16.920;2023-08-12T09:16:03;4.70;;;2.30;;
35576;SDS011;21680;52.400;16.920;2023-08-12T09:18:29;9.00;;;2.50;;
35576;SDS011;21680;52.400;16.920;2023-08-12T09:20:55;5.20;;;2.30;;
35576;SDS011;21680;52.400;16.920;2023-08-12T09:23:20;3.90;;;2.50;;
35576;SDS011;21680;52.400;16.920;2023-08-12T09:25:45;6.60;;;2.80;;
35576;SDS011;21680;52.400;16.920;2023-08-12T09:28:11;8.10;;;2.50;;
35576;SDS011;21680;52.400;16.920;2023-08-12T09:30:37;6.10;;;2.30;;
35576;SDS011;21680;52.400;16.920;2023-08-12T09:33:04;7.10;;;2.10;;
35576;SDS011;21680;52.400;16.920;2023-08-12T09:35:39;8.00;;;2.50;;
35576;SDS011;21680;52.400;16.920;2023-08-12T09:38:14;4.50;;;2.30;;
35576;SDS011;21680;52.400;16.920;2023-08-12T09:40:39;5.80;;;2.90;;
35576;SDS011;21680;52.400;16.920;2023-08-12T09:43:05;5.90;;;2.30;;
35576;SDS011;21680;52.400;16.920;2023-08-12T09:45:31;4.70;;;2.70;;
35576;SDS011;21680;52.400;16.920;2023-08-12T09:47:57;4.50;;;2.30;;
35576;SDS011;21680;52.400;16.920;2023-08-12T09:50:23;6.70;;;2.80;;
35576;SDS011;21680;52.400;16.920;2023-08-12T09:52:50;3.10;;;2.50;;
35576;SDS011;21680;52.400;16.920;2023-08-12T09:55:16;3.00;;;2.40;;
35576;SDS011;21680;52.400;16.920;2023-08-12T09:57:42;3.70;;;2.50;;
35576;SDS011;21680;52.400;16.920;2023-08-12T10:00:10;3.60;;;2.20;;
35576;SDS011;21680;52.400;16.920;2023-08-12T10:02:41;5.30;;;2.30;;
35576;SDS011;21680;52.400;16.920;2023-08-12T10:05:19;6.70;;;2.60;;
35576;SDS011;21680;52.400;16.920;2023-08-12T10:07:51;7.70;;;2.10;;
35576;SDS011;21680;52.400;16.920;2023-08-12T10:10:18;9.30;;;3.00;;
35576;SDS011;21680;52.400;16.920;2023-08-12T10:12:43;3.70;;;2.20;;
35576;SDS011;21680;52.400;16.920;2023-08-12T10:15:09;4.00;;;2.00;;
35576;SDS011;21680;52.400;16.920;2023-08-12T10:17:35;3.30;;;1.70;;
35576;SDS011;21680;52.400;16.920;2023-08-12T10:20:02;4.20;;;1.90;;
35576;SDS011;21680;52.400;16.920;2023-08-12T10:22:29;4.10;;;2.10;;
35576;SDS011;21680;52.400;16.920;2023-08-12T10:24:59;2.80;;;1.70;;
35576;SDS011;21680;52.400;16.920;2023-08-12T10:27:27;4.20;;;2.50;;
35576;SDS011;21680;52.400;16.920;2023-08-12T10:29:52;4.90;;;2.50;;
35576;SDS011;21680;52.400;16.920;2023-08-12T10:32:21;2.90;;;2.00;;
35576;SDS011;21680;52.400;16.920;2023-08-12T10:34:46;2.60;;;2.30;;
35576;SDS011;21680;52.400;16.920;2023-08-12T10:37:19;15.00;;;2.40;;
35576;SDS011;21680;52.400;16.920;2023-08-12T10:39:45;10.00;;;2.70;;
35576;SDS011;21680;52.400;16.920;2023-08-12T10:42:10;4.50;;;2.20;;
35576;SDS011;21680;52.400;16.920;2023-08-12T10:44:51;5.60;;;2.60;;
35576;SDS011;21680;52.400;16.920;2023-08-12T10:47:17;3.90;;;2.20;;
35576;SDS011;21680;52.400;16.920;2023-08-12T10:49:43;2.70;;;1.80;;
35576;SDS011;21680;52.400;16.920;2023-08-12T10:55:15;5.50;;;2.20;;
35576;SDS011;21680;52.400;16.920;2023-08-12T10:57:42;2.70;;;1.90;;
35576;SDS011;21680;52.400;16.920;2023-08-12T11:00:11;5.50;;;2.40;;
35576;SDS011;21680;52.400;16.920;2023-08-12T11:02:39;10.90;;;2.20;;
35576;SDS011;21680;52.400;16.920;2023-08-12T11:05:09;3.30;;;1.90;;
35576;SDS011;21680;52.400;16.920;2023-08-12T11:10:12;4.20;;;2.10;;
35576;SDS011;21680;52.400;16.920;2023-08-12T11:15:28;6.70;;;2.10;;
35576;SDS011;21680;52.400;16.920;2023-08-12T11:18:08;4.30;;;1.80;;
35576;SDS011;21680;52.400;16.920;2023-08-12T11:20:34;2.40;;;2.00;;
35576;SDS011;21680;52.400;16.920;2023-08-12T11:23:02;4.20;;;2.00;;
35576;SDS011;21680;52.400;16.920;2023-08-12T11:25:28;2.80;;;1.40;;
35576;SDS011;21680;52.400;16.920;2023-08-12T11:27:55;3.20;;;1.70;;
35576;SDS011;21680;52.400;16.920;2023-08-12T11:30:21;7.90;;;1.90;;
35576;SDS011;21680;52.400;16.920;2023-08-12T11:32:48;7.20;;;2.00;;
35576;SDS011;21680;52.400;16.920;2023-08-12T11:35:16;2.20;;;1.80;;
35576;SDS011;21680;52.400;16.920;2023-08-12T11:37:43;4.00;;;1.80;;
35576;SDS011;21680;52.400;16.920;2023-08-12T11:40:11;2.60;;;1.80;;
35576;SDS011;21680;52.400;16.920;2023-08-12T11:42:40;2.40;;;1.60;;
35576;SDS011;21680;52.400;16.920;2023-08-12T11:45:07;5.20;;;3.20;;
35576;SDS011;21680;52.400;16.920;2023-08-12T11:47:36;4.90;;;2.40;;
35576;SDS011;21680;52.400;16.920;2023-08-12T11:50:05;3.10;;;1.50;;
35576;SDS011;21680;52.400;16.920;2023-08-12T11:52:33;5.90;;;1.80;;
35576;SDS011;21680;52.400;16.920;2023-08-12T11:54:59;2.40;;;1.80;;
35576;SDS011;21680;52.400;16.920;2023-08-12T11:57:25;3.00;;;1.70;;
35576;SDS011;21680;52.400;16.920;2023-08-12T11:59:51;2.00;;;1.80;;
35576;SDS011;21680;52.400;16.920;2023-08-12T12:02:16;4.60;;;1.70;;
35576;SDS011;21680;52.400;16.920;2023-08-12T12:04:42;2.60;;;1.60;;
35576;SDS011;21680;52.400;16.920;2023-08-12T12:07:17;2.20;;;1.60;;
35576;SDS011;21680;52.400;16.920;2023-08-12T12:09:49;3.50;;;1.80;;
35576;SDS011;21680;52.400;16.920;2023-08-12T12:12:16;2.40;;;1.50;;
35576;SDS011;21680;52.400;16.920;2023-08-12T12:14:42;3.60;;;1.90;;
35576;SDS011;21680;52.400;16.920;2023-08-12T12:17:08;3.40;;;1.70;;
35576;SDS011;21680;52.400;16.920;2023-08-12T12:19:35;5.90;;;1.70;;
35576;SDS011;21680;52.400;16.920;2023-08-12T12:22:02;8.60;;;1.80;;
35576;SDS011;21680;52.400;16.920;2023-08-12T12:24:29;3.90;;;2.40;;
35576;SDS011;21680;52.400;16.920;2023-08-12T12:26:56;2.20;;;1.90;;
35576;SDS011;21680;52.400;16.920;2023-08-12T12:29:22;10.30;;;2.10;;
35576;SDS011;21680;52.400;16.920;2023-08-12T12:31:47;3.00;;;1.90;;
35576;SDS011;21680;52.400;16.920;2023-08-12T12:34:13;4.20;;;1.90;;
35576;SDS011;21680;52.400;16.920;2023-08-12T12:36:39;2.10;;;1.60;;
35576;SDS011;21680;52.400;16.920;2023-08-12T12:39:05;5.70;;;2.00;;
35576;SDS011;21680;52.400;16.920;2023-08-12T12:41:32;5.90;;;1.90;;
35576;SDS011;21680;52.400;16.920;2023-08-12T12:43:59;2.70;;;1.70;;
35576;SDS011;21680;52.400;16.920;2023-08-12T12:46:25;14.40;;;10.50;;
35576;SDS011;21680;52.400;16.920;2023-08-12T12:48:51;24.20;;;18.50;;
35576;SDS011;21680;52.400;16.920;2023-08-12T12:51:16;5.60;;;3.80;;
35576;SDS011;21680;52.400;16.920;2023-08-12T12:53:41;3.40;;;2.50;;
35576;SDS011;21680;52.400;16.920;2023-08-12T12:56:07;3.30;;;2.00;;
35576;SDS011;21680;52.400;16.920;2023-08-12T12:58:32;3.80;;;1.70;;
35576;SDS011;21680;52.400;16.920;2023-08-12T13:00:59;3.40;;;1.70;;
35576;SDS011;21680;52.400;16.920;2023-08-12T13:03:24;2.50;;;1.80;;
35576;SDS011;21680;52.400;16.920;2023-08-12T13:05:50;4.20;;;1.80;;
35576;SDS011;21680;52.400;16.920;2023-08-12T13:08:15;5.60;;;1.60;;
35576;SDS011;21680;52.400;16.920;2023-08-12T13:10:40;8.00;;;1.90;;
35576;SDS011;21680;52.400;16.920;2023-08-12T13:13:06;2.10;;;1.90;;
35576;SDS011;21680;52.400;16.920;2023-08-12T13:15:31;2.50;;;1.30;;
35576;SDS011;21680;52.400;16.920;2023-08-12T13:17:56;3.10;;;1.90;;
35576;SDS011;21680;52.400;16.920;2023-08-12T13:20:23;9.60;;;1.70;;
35576;SDS011;21680;52.400;16.920;2023-08-12T13:22:48;3.20;;;2.00;;
35576;SDS011;21680;52.400;16.920;2023-08-12T13:25:13;5.20;;;1.90;;
35576;SDS011;21680;52.400;16.920;2023-08-12T13:27:39;4.90;;;1.50;;
35576;SDS011;21680;52.400;16.920;2023-08-12T13:30:04;3.30;;;1.90;;
35576;SDS011;21680;52.400;16.920;2023-08-12T13:32:31;4.10;;;3.60;;
35576;SDS011;21680;52.400;16.920;2023-08-12T13:34:56;13.50;;;10.10;;
35576;SDS011;21680;52.400;16.920;2023-08-12T13:37:21;8.50;;;2.70;;
35576;SDS011;21680;52.400;16.920;2023-08-12T13:39:47;3.60;;;1.90;;
35576;SDS011;21680;52.400;16.920;2023-08-12T13:42:12;3.60;;;1.80;;
35576;SDS011;21680;52.400;16.920;2023-08-12T13:44:37;4.10;;;2.00;;
35576;SDS011;21680;52.400;16.920;2023-08-12T13:47:03;5.40;;;2.30;;
35576;SDS011;21680;52.400;16.920;2023-08-12T13:49:28;6.90;;;1.90;;
35576;SDS011;21680;52.400;16.920;2023-08-12T13:51:53;2.60;;;1.60;;
35576;SDS011;21680;52.400;16.920;2023-08-12T13:54:20;3.60;;;2.10;;
35576;SDS011;21680;52.400;16.920;2023-08-12T13:56:45;4.20;;;2.00;;
35576;SDS011;21680;52.400;16.920;2023-08-12T13:59:10;4.30;;;1.90;;
35576;SDS011;21680;52.400;16.920;2023-08-12T14:01:35;2.40;;;1.80;;
35576;SDS011;21680;52.400;16.920;2023-08-12T14:04:01;4.30;;;2.40;;
35576;SDS011;21680;52.400;16.920;2023-08-12T14:06:26;2.30;;;2.10;;
35576;SDS011;21680;52.400;16.920;2023-08-12T14:08:51;7.70;;;2.00;;
35576;SDS011;21680;52.400;16.920;2023-08-12T14:11:17;3.60;;;2.20;;
35576;SDS011;21680;52.400;16.920;2023-08-12T14:13:42;3.00;;;2.20;;
35576;SDS011;21680;52.400;16.920;2023-08-12T14:16:07;3.70;;;2.40;;
35576;SDS011;21680;52.400;16.920;2023-08-12T14:18:33;4.50;;;2.20;;
35576;SDS011;21680;52.400;16.920;2023-08-12T14:20:58;5.10;;;2.30;;
35576;SDS011;21680;52.400;16.920;2023-08-12T14:23:23;6.20;;;2.20;;
35576;SDS011;21680;52.400;16.920;2023-08-12T14:25:48;3.50;;;1.90;;
35576;SDS011;21680;52.400;16.920;2023-08-12T14:28:14;2.70;;;2.50;;
35576;SDS011;21680;52.400;16.920;2023-08-12T14:30:39;4.60;;;2.10;;
35576;SDS011;21680;52.400;16.920;2023-08-12T14:33:04;3.50;;;1.90;;